Flight Track Log - Related Links

Times and Time Zones

All times are in EDT time to prevent confusion due to time zone crossing. See the SWA4843 flight status page for this flight to view local times or setup timezone preferences in your user account.

Time Position Orientation Groundspeed Altitude Reporting Facility
EDT Latitude Longitude Course Direction KTS MPH feet Rate Location/Type
Sat 11:42:09 PM 39.1833 -76.7167 148° Southeast 165 190 2,000  Level Potomac TRACON
Sat 11:44:32 PM 39.1128 -76.6589 148° Southeast 217 250 9,600 3,074 Climbing Washington Center
Sat 11:45:32 PM 39.1222 -76.5414 84° East 274 315 12,400 2,850 Climbing Washington Center
Sat 11:46:32 PM 39.1336 -76.4050 84° East 312 359 15,300 2,824 Climbing Washington Center
Sat 11:47:31 PM 39.1492 -76.2661 82° East 361 415 18,000 2,628 Climbing Washington Center
Sat 11:48:33 PM 39.1644 -76.1164 82° East 403 464 20,600 2,066 Climbing Washington Center
Sat 11:49:33 PM 39.1817 -75.9744 81° East 432 497 22,200 2,067 Climbing Washington Center
Sat 11:50:32 PM 39.2319 -75.8356 65° Northeast 425 489 24,700 2,235 Climbing Washington Center
Sat 11:52:06 PM 39.3792 -75.6433 45° Northeast 434 499 27,900 2,231 Climbing New York Center
Sat 11:53:08 PM 39.4694 -75.5256 45° Northeast 452 520 30,500 2,508 Climbing New York Center
Sat 11:54:08 PM 39.5575 -75.4078 46° Northeast 452 520 33,000 2,237 Climbing New York Center
Sat 11:55:06 PM 39.6453 -75.2947 45° Northeast 452 520 34,900 1,000 Climbing New York Center
Sat 11:56:08 PM 39.7311 -75.1761 47° Northeast 452 520 35,000 50 Climbing New York Center
Sat 11:57:06 PM 39.8017 -75.0697 49° Northeast 459 528 35,000  Level New York Center
Sat 11:58:07 PM 39.9050 -74.9219 48° Northeast 459 528 35,000  Level New York Center
Sat 11:59:06 PM 39.9925 -74.7997 47° Northeast 467 537 35,000  Level New York Center
Sun 12:00:56 AM 40.1458 -74.5581 50° Northeast 467 537 35,000  Level Boston Center
Sun 12:01:59 AM 40.2194 -74.4144 56° Northeast 470 541 35,000  Level Boston Center
Sun 12:02:58 AM 40.2936 -74.2736 55° Northeast 471 542 35,000  Level Boston Center
Sun 12:03:59 AM 40.3675 -74.1319 56° Northeast 471 542 35,000  Level Boston Center
Sun 12:05:01 AM 40.4372 -73.9986 55° Northeast 472 543 35,000  Level Boston Center
Sun 12:06:01 AM 40.5131 -73.8569 55° Northeast 472 543 35,000  Level Boston Center
Sun 12:07:02 AM 40.5872 -73.7144 56° Northeast 473 544 35,000  Level Boston Center
Sun 12:08:00 AM 40.6653 -73.5628 56° Northeast 473 544 35,000  Level Boston Center
Sun 12:09:00 AM 40.7344 -73.4272 56° Northeast 473 544 35,000 -195 Level Boston Center
Sun 12:10:03 AM 40.8117 -73.2753 56° Northeast 473 544 34,600 -634 Descending Boston Center
Sun 12:11:03 AM 40.8847 -73.1342 56° Northeast 472 543 33,700 -958 Descending Boston Center
Sun 12:12:02 AM 40.9564 -72.9908 56° Northeast 471 542 32,700 -950 Descending Boston Center
Sun 12:13:03 AM 41.0289 -72.8467 56° Northeast 471 542 31,800 -927 Descending Boston Center
Sun 12:14:05 AM 41.1014 -72.7014 56° Northeast 471 542 30,800 -976 Descending Boston Center
Sun 12:15:06 AM 41.1753 -72.5525 57° Northeast 478 550 29,800 -966 Descending Boston Center
Sun 12:16:03 AM 41.2483 -72.4047 57° Northeast 478 550 28,900 -1,017 Descending Boston Center
Sun 12:17:04 AM 41.3247 -72.2492 57° Northeast 481 554 27,800 -1,033 Descending Boston Center
Sun 12:18:05 AM 41.3994 -72.0997 56° Northeast 485 558 26,800 -984 Descending Boston Center
Sun 12:19:06 AM 41.4731 -71.9519 56° Northeast 482 555 25,800 -1,200 Descending Boston Center
Sun 12:20:05 AM 41.5533 -71.7831 58° Northeast 476 548 24,400 -2,100 Descending Boston Center
Sun 12:21:06 AM 41.6225 -71.6436 56° Northeast 460 529 21,600 -2,732 Descending Boston Center
Sun 12:22:08 AM 41.6881 -71.5031 58° Northeast 440 506 18,800 -2,613 Descending Boston Center
Sun 12:23:10 AM 41.7492 -71.3731 58° Northeast 419 482 16,200 -2,628 Descending Boston Center
Sun 12:24:09 AM 41.8039 -71.2439 60° Northeast 406 467 13,500 -2,593 Descending Boston Center
Sun 12:25:08 AM 41.8594 -71.1203 59° Northeast 392 451 11,100 -1,230 Descending Boston Center
Sun 12:26:11 AM 41.9275 -71.0172 48° Northeast 374 430 11,000 -50 Descending Boston Center
Sun 12:27:09 AM 41.9986 -70.9056 49° Northeast 369 425 11,000 -102 Level Boston Center
Sun 12:28:09 AM 42.0572 -70.8142 49° Northeast 340 391 10,800 -1,091 Descending Boston Center
Sun 12:29:10 AM 42.1089 -70.7253 52° Northeast 305 351 8,800 -1,820 Descending Boston Center
Sun 12:30:11 AM 42.1686 -70.6561 41° Northeast 286 329 7,100 -1,785 Descending Boston Center
Sun 12:31:11 AM 42.2361 -70.6108 26° Northeast 276 318 5,200 -1,475 Descending Boston Center
Sun 12:32:13 AM 42.3025 -70.5961 North 246 283 4,100 -934 Descending Boston Center
Sun 12:33:13 AM 42.3611 -70.6258 339° North 229 264 3,300 -559 Descending Boston Center
Sun 12:34:11 AM 42.3772 -70.6958 287° West 201 231 3,000 -150 Descending Boston Center
Sun 12:35:13 AM 42.3853 -70.7519 281° West 162 186 3,000 -149 Level Boston Center
Sun 12:36:12 AM 42.3919 -70.8081 279° West 154 177 2,700 -605 Descending Boston Center
Sun 12:37:12 AM 42.3828 -70.8656 258° West 149 171 1,800 -744 Descending Boston Center
Sun 12:38:13 AM 42.3744 -70.9108 256° West 130 150 1,200 -595 Descending Boston Center
Sun 12:39:13 AM 42.3669 -70.9522 256° West 118 136 600 -545 Descending Boston Center
Sun 12:40:14 AM 42.3597 -71.0014 259° West 119 137 100 -492 Descending Boston Center
Sun 12:42:00 AM 42.3500 -71.0000 236° Southwest  Level FlightAware Approximate

Login

Don't have an account? Register now (free) for customized features, flight alerts, and more!